Time;durP1;ratioP1;P1;durP2;ratioP2;P2;SDS_P1;SDS_P2;PMS_P1;PMS_P2;Temp;Humidity;BMP_temperature;BMP_pressure;BME280_temperature;BME280_humidity;BME280_pressure;Samples;Min_cycle;Max_cycle;Signal;HPM_P1;HPM_P2
2023/04/02 00:01:00;;;;;;;8.32;4.75;;;;;;;;;;5033985;28;20487;-60
2023/04/02 00:03:41;;;;;;;8.45;4.35;;;;;;;;;;5029988;28;20041;-60
2023/04/02 00:06:43;;;;;;;8.57;4.13;;;;;;;;;;5029315;28;20049;-62
2023/04/02 00:09:15;;;;;;;6.15;3.88;;;;;;;;;;5034347;28;20041;-60
2023/04/02 00:11:47;;;;;;;7.10;3.72;;;;;;;;;;5029603;28;20049;-60
2023/04/02 00:14:25;;;;;;;9.07;4.32;;;;;;;;;;5034491;28;20033;-59
2023/04/02 00:16:51;;;;;;;;;;;;;;;;;;5045847;28;20053;-60
2023/04/02 00:19:21;;;;;;;7.03;3.97;;;;;;;;;;5045359;28;19935;-60
2023/04/02 00:21:48;;;;;;;6.93;4.05;;;;;;;;;;5044418;28;20045;-60
2023/04/02 00:24:16;;;;;;;10.48;4.07;;;;;;;;;;5045273;28;20037;-60
2023/04/02 00:26:44;;;;;;;12.88;4.30;;;;;;;;;;5048047;28;20048;-60
2023/04/02 00:29:11;;;;;;;10.15;4.18;;;;;;;;;;5044960;28;20044;-60
2023/04/02 00:31:40;;;;;;;8.77;4.03;;;;;;;;;;5044928;28;20045;-60
2023/04/02 00:34:07;;;;;;;8.20;4.47;;;;;;;;;;5044538;28;20057;-60
2023/04/02 00:36:34;;;;;;;10.15;3.42;;;;;;;;;;5042805;28;20056;-60
2023/04/02 00:39:02;;;;;;;6.47;3.95;;;;;;;;;;5045334;28;20063;-60
2023/04/02 00:41:29;;;;;;;9.30;4.13;;;;;;;;;;5044608;28;20056;-60
2023/04/02 00:43:56;;;;;;;7.30;4.00;;;;;;;;;;5045285;28;20284;-60
2023/04/02 00:46:26;;;;;;;8.05;3.92;;;;;;;;;;5045403;28;20052;-59
2023/04/02 00:48:56;;;;;;;7.07;3.90;;;;;;;;;;5045225;28;20051;-59
2023/04/02 00:51:24;;;;;;;6.30;3.65;;;;;;;;;;5044195;28;20060;-60
2023/04/02 00:53:52;;;;;;;11.82;4.00;;;;;;;;;;5044941;28;20059;-60
2023/04/02 00:56:20;;;;;;;5.68;3.28;;;;;;;;;;5044643;28;20052;-61
2023/04/02 00:58:46;;;;;;;;;;;;;;;;;;5045039;28;20449;-60
2023/04/02 01:01:21;;;;;;;9.43;3.60;;;;;;;;;;5044981;28;20440;-60
2023/04/02 01:03:59;;;;;;;6.70;3.05;;;;;;;;;;5101382;23;20565;-58
2023/04/02 01:06:29;;;;;;;8.30;3.35;;;;;;;;;;5023818;28;20045;-61
2023/04/02 01:09:03;;;;;;;9.63;3.17;;;;;;;;;;5024792;28;20044;-61
2023/04/02 01:11:30;;;;;;;5.53;3.03;;;;;;;;;;5024108;28;20042;-60
2023/04/02 01:14:09;;;;;;;6.45;3.10;;;;;;;;;;5024121;28;20088;-59
2023/04/02 01:16:45;;;;;;;7.97;3.10;;;;;;;;;;5024213;28;20092;-59
2023/04/02 01:19:32;;;;;;;9.32;3.17;;;;;;;;;;5023932;28;20049;-59
2023/04/02 01:22:02;;;;;;;8.23;3.40;;;;;;;;;;5024608;28;20384;-60
2023/04/02 01:24:31;;;;;;;8.57;3.30;;;;;;;;;;5027874;28;20046;-59
2023/04/02 01:26:58;;;;;;;5.32;2.78;;;;;;;;;;5028062;28;20042;-59
2023/04/02 01:29:32;;;;;;;6.03;2.85;;;;;;;;;;5028123;28;20099;-59
2023/04/02 01:32:02;;;;;;;8.95;3.40;;;;;;;;;;5027918;28;20398;-59
2023/04/02 01:34:29;;;;;;;8.80;2.90;;;;;;;;;;5027704;28;20714;-59
2023/04/02 01:37:01;;;;;;;9.55;3.13;;;;;;;;;;5027655;28;20045;-60
2023/04/02 01:39:42;;;;;;;8.50;3.15;;;;;;;;;;5027841;28;20048;-60
2023/04/02 01:42:24;;;;;;;8.95;3.00;;;;;;;;;;5027724;28;20045;-60
2023/04/02 01:44:52;;;;;;;10.32;3.25;;;;;;;;;;5028385;28;20056;-60
2023/04/02 01:47:23;;;;;;;12.63;3.78;;;;;;;;;;5028188;28;20037;-60
2023/04/02 01:49:49;;;;;;;5.97;2.70;;;;;;;;;;5027752;28;20113;-58
2023/04/02 01:52:17;;;;;;;8.15;2.88;;;;;;;;;;5027314;28;20045;-58
2023/04/02 01:54:44;;;;;;;6.53;2.53;;;;;;;;;;5027496;28;20056;-58
2023/04/02 01:57:10;;;;;;;6.55;3.05;;;;;;;;;;5028402;28;20095;-58
2023/04/02 01:59:36;;;;;;;7.45;2.88;;;;;;;;;;5026196;28;20057;-58
2023/04/02 02:02:04;;;;;;;6.80;2.58;;;;;;;;;;5027513;28;20046;-58
2023/04/02 02:04:31;;;;;;;9.05;2.60;;;;;;;;;;5027578;28;20042;-58
2023/04/02 02:06:59;;;;;;;8.18;2.10;;;;;;;;;;5026745;28;20041;-58
2023/04/02 02:09:28;;;;;;;5.72;2.83;;;;;;;;;;5027805;28;20494;-58
2023/04/02 02:11:56;;;;;;;6.90;2.35;;;;;;;;;;5027517;28;20046;-60
2023/04/02 02:14:23;;;;;;;6.97;2.42;;;;;;;;;;5027987;28;20372;-57
2023/04/02 02:16:52;;;;;;;6.53;2.63;;;;;;;;;;5026931;28;20037;-57
2023/04/02 02:19:19;;;;;;;5.38;2.60;;;;;;;;;;5026353;28;20065;-58
2023/04/02 02:21:47;;;;;;;9.35;2.30;;;;;;;;;;5026413;28;20491;-57
2023/04/02 02:24:18;;;;;;;6.32;2.67;;;;;;;;;;5027669;28;20045;-57
2023/04/02 02:26:46;;;;;;;6.00;2.50;;;;;;;;;;5027048;28;20858;-57
2023/04/02 02:29:16;;;;;;;6.45;2.53;;;;;;;;;;5027363;28;20045;-57
2023/04/02 02:31:43;;;;;;;8.25;2.72;;;;;;;;;;5026038;28;20065;-57
2023/04/02 02:34:15;;;;;;;7.45;2.38;;;;;;;;;;5027153;28;20140;-57
2023/04/02 02:36:51;;;;;;;5.75;1.88;;;;;;;;;;5012956;28;20045;-58
2023/04/02 02:39:22;;;;;;;7.13;2.00;;;;;;;;;;5027238;28;20053;-57
2023/04/02 02:42:00;;;;;;;6.68;2.13;;;;;;;;;;5026764;28;20045;-58
2023/04/02 02:44:28;;;;;;;11.93;2.33;;;;;;;;;;5026868;28;20575;-58
2023/04/02 02:46:58;;;;;;;5.30;2.20;;;;;;;;;;5027426;28;20042;-57
2023/04/02 02:49:27;;;;;;;6.63;2.10;;;;;;;;;;5027337;28;20049;-58
2023/04/02 02:52:13;;;;;;;10.23;2.75;;;;;;;;;;5026216;28;20490;-57
2023/04/02 02:54:43;;;;;;;5.68;1.98;;;;;;;;;;5025996;28;20045;-57
2023/04/02 02:57:12;;;;;;;6.63;1.83;;;;;;;;;;5013388;28;20121;-58
2023/04/02 02:59:39;;;;;;;7.45;2.25;;;;;;;;;;5026567;28;20045;-58
2023/04/02 03:02:06;;;;;;;5.15;2.03;;;;;;;;;;5026600;28;20061;-57
2023/04/02 03:04:34;;;;;;;12.18;1.73;;;;;;;;;;5024883;28;20053;-57
2023/04/02 03:07:02;;;;;;;7.60;1.60;;;;;;;;;;5025754;28;20092;-58
2023/04/02 03:09:28;;;;;;;3.05;1.52;;;;;;;;;;5026369;28;20045;-58
2023/04/02 03:12:02;;;;;;;5.43;1.88;;;;;;;;;;5026488;28;20403;-57
2023/04/02 03:14:32;;;;;;;7.18;1.42;;;;;;;;;;5026360;28;20372;-58
2023/04/02 03:17:03;;;;;;;5.10;1.98;;;;;;;;;;5026257;28;20103;-58
2023/04/02 03:19:35;;;;;;;6.25;1.55;;;;;;;;;;5026380;28;20052;-58
2023/04/02 03:22:06;;;;;;;6.93;1.83;;;;;;;;;;5025223;28;20033;-58
2023/04/02 03:24:36;;;;;;;5.32;1.48;;;;;;;;;;5026134;28;20639;-58
2023/04/02 03:27:09;;;;;;;3.80;1.30;;;;;;;;;;5025848;28;20059;-58
2023/04/02 03:29:36;;;;;;;5.53;1.65;;;;;;;;;;5012746;28;20041;-58
2023/04/02 03:32:18;;;;;;;7.47;1.73;;;;;;;;;;5026041;28;20060;-58
2023/04/02 03:34:47;;;;;;;5.45;1.58;;;;;;;;;;5012736;28;20129;-58
2023/04/02 03:37:16;;;;;;;6.93;1.67;;;;;;;;;;5025705;28;20033;-57
2023/04/02 03:40:01;;;;;;;5.68;1.90;;;;;;;;;;5025633;28;20127;-58
2023/04/02 03:42:36;;;;;;;3.75;1.50;;;;;;;;;;5035734;28;20135;-58
2023/04/02 03:45:11;;;;;;;6.50;2.22;;;;;;;;;;5025037;28;20111;-58
2023/04/02 03:47:39;;;;;;;8.55;2.20;;;;;;;;;;5025678;28;20408;-58
2023/04/02 03:50:05;;;;;;;7.18;2.10;;;;;;;;;;5026187;28;20049;-57
2023/04/02 03:52:34;;;;;;;5.72;2.08;;;;;;;;;;5024872;28;20095;-58
2023/04/02 03:55:01;;;;;;;7.45;2.10;;;;;;;;;;5025555;28;20038;-57
2023/04/02 03:57:42;;;;;;;5.45;1.92;;;;;;;;;;5025549;28;20117;-57
2023/04/02 04:00:15;;;;;;;9.20;2.30;;;;;;;;;;5025645;28;20127;-57
2023/04/02 04:02:44;;;;;;;5.50;2.05;;;;;;;;;;5025406;28;20061;-57
2023/04/02 04:05:19;;;;;;;6.47;2.38;;;;;;;;;;5025184;28;20125;-57
2023/04/02 04:07:45;;;;;;;7.50;2.10;;;;;;;;;;5024626;28;20088;-58
2023/04/02 04:10:19;;;;;;;5.35;2.00;;;;;;;;;;5025501;28;20045;-58
2023/04/02 04:12:47;;;;;;;9.20;1.90;;;;;;;;;;5025227;28;20045;-56
2023/04/02 04:15:19;;;;;;;5.82;2.40;;;;;;;;;;5025436;28;20038;-57
2023/04/02 04:18:00;;;;;;;8.50;2.17;;;;;;;;;;5025195;28;20517;-57
2023/04/02 04:20:32;;;;;;;4.95;1.40;;;;;;;;;;5024302;28;20073;-60
2023/04/02 04:23:07;;;;;;;4.43;2.22;;;;;;;;;;5024584;28;20057;-57
2023/04/02 04:25:35;;;;;;;5.15;1.40;;;;;;;;;;5024844;28;20089;-57
2023/04/02 04:28:20;;;;;;;5.63;1.40;;;;;;;;;;5025117;28;20549;-57
2023/04/02 04:30:50;;;;;;;5.00;1.60;;;;;;;;;;5024850;28;20049;-57
2023/04/02 04:33:21;;;;;;;5.78;1.50;;;;;;;;;;5024838;28;20128;-58
2023/04/02 04:35:51;;;;;;;6.40;2.00;;;;;;;;;;5024426;28;20133;-57
2023/04/02 04:38:20;;;;;;;5.43;1.27;;;;;;;;;;5025263;28;20475;-57
2023/04/02 04:40:52;;;;;;;9.77;1.60;;;;;;;;;;5024782;28;20052;-57
2023/04/02 04:43:24;;;;;;;5.47;1.33;;;;;;;;;;5023901;28;20053;-58
2023/04/02 04:45:55;;;;;;;4.13;1.00;;;;;;;;;;5025169;28;20065;-58
2023/04/02 04:48:25;;;;;;;1.73;0.80;;;;;;;;;;5025523;28;20056;-57
2023/04/02 04:50:51;;;;;;;12.57;1.17;;;;;;;;;;5023556;28;20049;-57
2023/04/02 04:53:22;;;;;;;5.82;1.10;;;;;;;;;;5025038;28;20056;-58
2023/04/02 04:55:49;;;;;;;8.68;1.52;;;;;;;;;;5026231;28;20458;-57
2023/04/02 04:58:16;;;;;;;6.57;1.15;;;;;;;;;;5029009;28;20116;-58
2023/04/02 05:00:50;;;;;;;4.25;0.65;;;;;;;;;;5028791;28;20049;-58
2023/04/02 05:03:29;;;;;;;5.60;1.00;;;;;;;;;;5027375;28;20446;-58
2023/04/02 05:06:00;;;;;;;2.90;0.47;;;;;;;;;;5027896;28;20184;-58
2023/04/02 05:08:30;;;;;;;3.25;0.90;;;;;;;;;;5028558;28;20079;-57
2023/04/02 05:11:04;;;;;;;3.40;0.88;;;;;;;;;;5028929;28;20048;-57
2023/04/02 05:13:34;;;;;;;2.67;1.10;;;;;;;;;;5028191;28;20172;-58
2023/04/02 05:16:07;;;;;;;7.78;0.88;;;;;;;;;;5027674;28;20499;-57
2023/04/02 05:18:37;;;;;;;2.47;1.38;;;;;;;;;;5028365;28;20048;-58
2023/04/02 05:21:07;;;;;;;3.55;0.73;;;;;;;;;;5028144;28;20510;-57
2023/04/02 05:23:37;;;;;;;5.10;1.00;;;;;;;;;;5028502;28;20045;-58
2023/04/02 05:26:16;;;;;;;2.47;0.60;;;;;;;;;;5027876;28;20135;-57
2023/04/02 05:28:44;;;;;;;5.07;1.10;;;;;;;;;;5028296;28;20037;-58
2023/04/02 05:31:14;;;;;;;3.40;0.95;;;;;;;;;;5028528;28;20037;-58
2023/04/02 05:33:44;;;;;;;3.78;0.80;;;;;;;;;;5028196;28;20131;-58
2023/04/02 05:36:13;;;;;;;2.03;0.70;;;;;;;;;;5027373;28;20033;-58
2023/04/02 05:38:45;;;;;;;5.50;0.77;;;;;;;;;;5027253;28;20757;-57
2023/04/02 05:41:22;;;;;;;3.10;0.80;;;;;;;;;;5014530;28;20053;-57
2023/04/02 05:43:50;;;;;;;5.15;0.90;;;;;;;;;;5014749;28;20049;-59
2023/04/02 05:46:20;;;;;;;5.57;1.17;;;;;;;;;;5016807;28;20042;-58
2023/04/02 05:48:49;;;;;;;4.75;0.90;;;;;;;;;;5019369;28;20033;-59
2023/04/02 05:51:17;;;;;;;7.05;1.20;;;;;;;;;;5018594;28;20120;-58
2023/04/02 05:53:52;;;;;;;5.40;0.80;;;;;;;;;;5020782;28;20573;-58
2023/04/02 05:56:24;;;;;;;5.75;0.95;;;;;;;;;;5019814;28;20371;-59
2023/04/02 05:58:52;;;;;;;4.82;2.08;;;;;;;;;;5015265;28;20057;-58
2023/04/02 06:01:22;;;;;;;4.20;0.88;;;;;;;;;;5024870;28;20041;-60
2023/04/02 06:03:55;;;;;;;10.00;1.35;;;;;;;;;;5013772;28;20072;-59
2023/04/02 06:06:27;;;;;;;4.57;0.93;;;;;;;;;;5020844;28;20084;-60
2023/04/02 06:08:57;;;;;;;5.88;1.10;;;;;;;;;;5015669;28;20049;-59
2023/04/02 06:11:27;;;;;;;13.25;5.68;;;;;;;;;;5017950;28;20038;-59
2023/04/02 06:13:54;;;;;;;31.88;13.20;;;;;;;;;;5013241;28;20126;-59
2023/04/02 06:16:21;;;;;;;12.95;5.00;;;;;;;;;;5016956;28;20057;-59
2023/04/02 06:18:47;;;;;;;13.15;4.47;;;;;;;;;;5013146;28;20100;-59
2023/04/02 06:21:15;;;;;;;11.85;3.35;;;;;;;;;;5013416;28;20042;-59
2023/04/02 06:23:45;;;;;;;25.58;12.27;;;;;;;;;;5018124;28;20037;-59
2023/04/02 06:26:18;;;;;;;17.13;6.05;;;;;;;;;;5025116;28;20087;-59
2023/04/02 06:28:45;;;;;;;13.50;4.43;;;;;;;;;;5027066;28;20033;-58
2023/04/02 06:31:20;;;;;;;11.85;5.05;;;;;;;;;;5027790;28;20111;-59
2023/04/02 06:33:51;;;;;;;14.60;7.28;;;;;;;;;;5027457;28;20045;-58
2023/04/02 06:36:17;;;;;;;12.43;2.58;;;;;;;;;;5016575;28;20324;-59
2023/04/02 06:38:44;;;;;;;4.88;1.35;;;;;;;;;;5016276;28;20100;-58
2023/04/02 06:41:15;;;;;;;11.02;2.97;;;;;;;;;;5012340;28;20112;-58
2023/04/02 06:44:01;;;;;;;5.10;1.25;;;;;;;;;;5017083;28;20049;-58
2023/04/02 06:46:31;;;;;;;5.90;1.80;;;;;;;;;;5017101;28;20492;-60
2023/04/02 06:49:03;;;;;;;5.25;1.63;;;;;;;;;;5012092;28;20057;-59
2023/04/02 06:51:31;;;;;;;6.43;1.25;;;;;;;;;;5021029;28;20038;-59
2023/04/02 06:53:57;;;;;;;6.88;1.85;;;;;;;;;;5010778;28;20574;-58
2023/04/02 06:56:41;;;;;;;3.95;1.30;;;;;;;;;;5017882;28;20030;-59
2023/04/02 06:59:07;;;;;;;6.07;1.25;;;;;;;;;;5011503;28;20162;-59
2023/04/02 07:01:36;;;;;;;10.45;2.03;;;;;;;;;;5011957;28;20447;-59
2023/04/02 07:04:03;;;;;;;4.13;1.35;;;;;;;;;;5009112;28;20050;-59
2023/04/02 07:06:29;;;;;;;6.90;1.48;;;;;;;;;;5018181;28;20410;-59
2023/04/02 07:08:55;;;;;;;6.32;1.33;;;;;;;;;;5019612;28;20512;-61
2023/04/02 07:11:22;;;;;;;9.60;1.67;;;;;;;;;;5021452;28;20420;-59
2023/04/02 07:13:48;;;;;;;7.05;1.90;;;;;;;;;;5017318;28;20105;-60
2023/04/02 07:16:16;;;;;;;7.03;1.55;;;;;;;;;;5022205;28;20462;-59
2023/04/02 07:18:43;;;;;;;5.70;1.85;;;;;;;;;;5015708;28;20042;-59
2023/04/02 07:21:09;;;;;;;7.65;2.85;;;;;;;;;;5011982;28;20657;-59
2023/04/02 07:23:36;;;;;;;5.57;1.92;;;;;;;;;;5018095;28;20053;-61
2023/04/02 07:26:03;;;;;;;29.83;11.88;;;;;;;;;;5023845;28;20380;-59
2023/04/02 07:28:29;;;;;;;8.55;3.38;;;;;;;;;;5014969;28;20049;-59
2023/04/02 07:30:55;;;;;;;9.48;1.50;;;;;;;;;;5018852;28;20088;-60
2023/04/02 07:33:23;;;;;;;5.13;1.13;;;;;;;;;;5010481;28;20053;-59
2023/04/02 07:35:50;;;;;;;9.85;1.23;;;;;;;;;;5016785;28;20038;-60
2023/04/02 07:38:16;;;;;;;8.73;2.40;;;;;;;;;;5021861;28;20042;-59
2023/04/02 07:40:42;;;;;;;8.40;2.25;;;;;;;;;;5022050;28;20049;-59
2023/04/02 07:43:08;;;;;;;5.75;2.03;;;;;;;;;;5021248;28;20049;-59
2023/04/02 07:45:35;;;;;;;7.78;3.35;;;;;;;;;;5023385;28;20083;-59
2023/04/02 07:48:07;;;;;;;9.95;3.35;;;;;;;;;;5021189;28;20483;-59
2023/04/02 07:50:34;;;;;;;10.57;4.00;;;;;;;;;;5019308;28;20099;-59
2023/04/02 07:53:01;;;;;;;6.07;1.92;;;;;;;;;;5017070;28;20399;-59
2023/04/02 07:55:27;;;;;;;5.15;1.90;;;;;;;;;;5014615;28;20033;-59
2023/04/02 07:57:54;;;;;;;7.13;1.85;;;;;;;;;;5016766;28;20203;-59
2023/04/02 08:00:23;;;;;;;9.05;2.45;;;;;;;;;;5013971;28;20038;-59
2023/04/02 08:02:49;;;;;;;7.30;2.28;;;;;;;;;;5015251;28;20053;-59
2023/04/02 08:05:16;;;;;;;4.18;1.45;;;;;;;;;;5021885;28;20041;-59
2023/04/02 08:07:43;;;;;;;5.13;1.00;;;;;;;;;;5021459;28;20049;-59
2023/04/02 08:10:10;;;;;;;6.93;1.92;;;;;;;;;;5022214;28;20090;-59
2023/04/02 08:12:36;;;;;;;2.80;1.23;;;;;;;;;;5020341;28;20037;-59
2023/04/02 08:15:04;;;;;;;4.93;1.83;;;;;;;;;;5021060;28;20129;-60
2023/04/02 08:17:32;;;;;;;9.10;2.58;;;;;;;;;;5024519;28;20537;-59
2023/04/02 08:19:59;;;;;;;3.10;0.93;;;;;;;;;;5019603;28;20491;-59
2023/04/02 08:22:27;;;;;;;2.45;1.30;;;;;;;;;;5023170;28;20386;-59
2023/04/02 08:24:53;;;;;;;4.35;1.30;;;;;;;;;;5023048;28;20084;-59
2023/04/02 08:27:19;;;;;;;5.88;2.35;;;;;;;;;;5023744;28;20049;-59
2023/04/02 08:29:45;;;;;;;7.07;2.53;;;;;;;;;;5024501;28;20064;-59
2023/04/02 08:32:14;;;;;;;4.32;2.58;;;;;;;;;;5024570;28;20045;-59
2023/04/02 08:34:40;;;;;;;5.80;2.05;;;;;;;;;;5024466;28;20068;-59
2023/04/02 08:37:07;;;;;;;13.20;6.00;;;;;;;;;;5023886;28;20393;-60
2023/04/02 08:39:34;;;;;;;8.25;3.95;;;;;;;;;;5022573;28;21943;-59
2023/04/02 08:42:14;;;;;;;11.63;5.22;;;;;;;;;;5023774;28;20499;-59
2023/04/02 08:44:53;;;;;;;12.48;6.90;;;;;;;;;;5018375;28;20078;-59
2023/04/02 08:47:20;;;;;;;13.80;5.03;;;;;;;;;;5024361;28;20068;-59
2023/04/02 08:49:53;;;;;;;10.07;3.75;;;;;;;;;;5019156;28;20053;-59
2023/04/02 08:52:25;;;;;;;15.32;9.82;;;;;;;;;;5022268;28;20081;-59
2023/04/02 08:54:52;;;;;;;8.15;3.88;;;;;;;;;;5020965;28;20128;-59
2023/04/02 08:57:24;;;;;;;4.55;2.65;;;;;;;;;;5021047;28;20069;-59
2023/04/02 08:59:56;;;;;;;19.30;10.85;;;;;;;;;;5017510;28;20042;-58
2023/04/02 09:02:35;;;;;;;8.20;2.88;;;;;;;;;;5016505;28;20073;-58
2023/04/02 09:05:04;;;;;;;10.98;6.35;;;;;;;;;;5016634;28;20188;-59
2023/04/02 09:07:32;;;;;;;4.18;2.85;;;;;;;;;;5015390;28;20041;-59
2023/04/02 09:09:58;;;;;;;11.55;5.20;;;;;;;;;;5018294;28;20412;-59
2023/04/02 09:12:26;;;;;;;12.35;6.95;;;;;;;;;;5017135;28;20522;-59
2023/04/02 09:15:02;;;;;;;14.85;7.97;;;;;;;;;;5020099;28;20411;-59
2023/04/02 09:17:28;;;;;;;13.20;7.43;;;;;;;;;;5016778;28;20049;-60
2023/04/02 09:19:55;;;;;;;14.18;10.05;;;;;;;;;;5018976;28;20515;-59
2023/04/02 09:22:26;;;;;;;11.07;5.45;;;;;;;;;;5017255;28;20072;-59
2023/04/02 09:24:53;;;;;;;9.80;3.88;;;;;;;;;;5019425;28;20076;-59
2023/04/02 09:27:21;;;;;;;13.68;6.03;;;;;;;;;;5020284;28;20583;-59
2023/04/02 09:29:51;;;;;;;9.68;4.28;;;;;;;;;;5018097;28;20044;-59
2023/04/02 09:32:18;;;;;;;8.60;4.85;;;;;;;;;;5018646;28;20045;-59
2023/04/02 09:34:44;;;;;;;7.75;2.75;;;;;;;;;;5022201;28;20049;-59
2023/04/02 09:37:22;;;;;;;5.95;3.15;;;;;;;;;;5018046;28;20084;-59
2023/04/02 09:39:48;;;;;;;6.45;1.95;;;;;;;;;;5015219;28;20058;-59
2023/04/02 09:42:32;;;;;;;4.65;0.82;;;;;;;;;;5005858;28;20034;-59
2023/04/02 09:45:17;;;;;;;3.92;1.10;;;;;;;;;;5025806;28;20394;-59
2023/04/02 09:47:43;;;;;;;8.77;1.85;;;;;;;;;;5009807;28;20049;-59
2023/04/02 09:50:22;;;;;;;4.57;1.83;;;;;;;;;;5019687;28;20048;-60
2023/04/02 09:52:48;;;;;;;6.15;1.83;;;;;;;;;;5017346;28;20551;-61
2023/04/02 09:55:15;;;;;;;6.30;1.20;;;;;;;;;;5022470;28;20157;-60
2023/04/02 09:57:42;;;;;;;2.33;0.90;;;;;;;;;;5019662;28;20120;-60
2023/04/02 10:00:15;;;;;;;5.22;1.63;;;;;;;;;;5022644;28;20045;-59
2023/04/02 10:02:42;;;;;;;11.02;4.85;;;;;;;;;;5022261;28;20160;-58
2023/04/02 10:05:18;;;;;;;6.95;2.50;;;;;;;;;;5020467;28;20085;-59
2023/04/02 10:07:46;;;;;;;18.33;11.70;;;;;;;;;;5011997;28;20459;-58
2023/04/02 10:10:19;;;;;;;13.82;7.72;;;;;;;;;;5006389;28;20088;-58
2023/04/02 10:12:48;;;;;;;23.67;11.43;;;;;;;;;;5006048;28;20124;-58
2023/04/02 10:15:16;;;;;;;11.75;3.80;;;;;;;;;;5006334;28;20441;-58
2023/04/02 10:17:43;;;;;;;4.65;1.45;;;;;;;;;;5013709;28;20049;-58
2023/04/02 10:20:18;;;;;;;6.47;1.92;;;;;;;;;;5010392;28;20080;-60
2023/04/02 10:22:46;;;;;;;5.40;3.70;;;;;;;;;;5018978;28;20565;-59
2023/04/02 10:25:20;;;;;;;6.05;3.35;;;;;;;;;;5015615;28;20038;-57
2023/04/02 10:27:54;;;;;;;3.75;1.60;;;;;;;;;;5021344;28;20060;-58
2023/04/02 10:30:28;;;;;;;2.30;0.80;;;;;;;;;;5022547;28;20081;-58
2023/04/02 10:32:59;;;;;;;4.10;1.48;;;;;;;;;;5022370;28;20057;-57
2023/04/02 10:35:39;;;;;;;6.32;0.95;;;;;;;;;;5024020;28;20053;-58
2023/04/02 10:38:12;;;;;;;11.30;7.55;;;;;;;;;;5016126;28;20141;-58
2023/04/02 10:40:42;;;;;;;5.22;1.92;;;;;;;;;;5005267;28;20578;-58
2023/04/02 10:43:22;;;;;;;2.97;1.23;;;;;;;;;;5020393;28;20081;-58
2023/04/02 10:45:58;;;;;;;3.95;1.52;;;;;;;;;;5020761;28;20661;-58
2023/04/02 10:48:33;;;;;;;4.00;0.90;;;;;;;;;;5017089;28;20048;-59
2023/04/02 10:51:06;;;;;;;4.50;1.33;;;;;;;;;;5020915;28;20471;-59
2023/04/02 10:53:42;;;;;;;3.28;1.10;;;;;;;;;;5019581;28;20041;-59
2023/04/02 10:56:11;;;;;;;5.85;2.63;;;;;;;;;;5018670;28;20057;-59
2023/04/02 10:58:42;;;;;;;3.20;0.90;;;;;;;;;;5017928;28;20455;-59
2023/04/02 11:01:12;;;;;;;4.57;0.50;;;;;;;;;;5014124;28;20416;-59
2023/04/02 11:03:44;;;;;;;4.32;0.82;;;;;;;;;;5010378;28;20074;-59
2023/04/02 11:06:16;;;;;;;5.10;0.70;;;;;;;;;;5015637;28;20045;-59
2023/04/02 11:08:46;;;;;;;3.05;0.82;;;;;;;;;;5018019;28;20042;-59
2023/04/02 11:11:21;;;;;;;5.32;0.70;;;;;;;;;;5021326;28;20495;-58
2023/04/02 11:13:52;;;;;;;4.53;0.80;;;;;;;;;;5021685;28;20252;-59
2023/04/02 11:16:18;;;;;;;3.85;0.50;;;;;;;;;;5016466;28;20565;-59
2023/04/02 11:19:04;;;;;;;4.20;0.60;;;;;;;;;;5016923;28;20056;-59
2023/04/02 11:21:35;;;;;;;5.15;1.08;;;;;;;;;;5017258;28;20045;-58
2023/04/02 11:24:02;;;;;;;6.72;6.03;;;;;;;;;;5016201;28;20100;-58
2023/04/02 11:26:31;;;;;;;3.15;1.50;;;;;;;;;;5019242;28;20048;-59
2023/04/02 11:29:02;;;;;;;4.22;1.90;;;;;;;;;;5022292;28;20124;-58
2023/04/02 11:31:28;;;;;;;4.00;1.50;;;;;;;;;;5017905;28;20045;-59
2023/04/02 11:33:55;;;;;;;2.45;1.10;;;;;;;;;;5018933;28;20786;-58
2023/04/02 11:36:40;;;;;;;3.08;1.10;;;;;;;;;;5012153;28;20117;-58
2023/04/02 11:39:09;;;;;;;7.53;1.17;;;;;;;;;;5020875;28;20116;-59
2023/04/02 11:41:35;;;;;;;;;;;;;;;;;;5012765;28;20037;-58
2023/04/02 11:44:01;;;;;;;9.10;2.67;;;;;;;;;;5018367;28;20078;-58
2023/04/02 11:46:28;;;;;;;5.53;0.80;;;;;;;;;;5013107;28;20051;-58
2023/04/02 11:49:15;;;;;;;3.78;0.73;;;;;;;;;;5020020;28;20045;-62
2023/04/02 11:51:49;;;;;;;3.38;0.90;;;;;;;;;;5019895;28;20914;-58
2023/04/02 11:54:23;;;;;;;2.20;1.65;;;;;;;;;;5021993;28;20761;-58
2023/04/02 11:56:56;;;;;;;3.13;0.90;;;;;;;;;;5017465;28;20376;-58
2023/04/02 11:59:28;;;;;;;4.40;1.95;;;;;;;;;;5022669;28;20049;-59
2023/04/02 12:02:01;;;;;;;6.07;1.45;;;;;;;;;;5022663;28;20088;-58
2023/04/02 12:04:35;;;;;;;3.20;1.33;;;;;;;;;;5022867;28;20065;-58
2023/04/02 12:07:16;;;;;;;2.05;0.60;;;;;;;;;;5019396;28;20171;-58
2023/04/02 12:09:44;;;;;;;4.82;1.10;;;;;;;;;;5020896;28;20052;-58
2023/04/02 12:12:24;;;;;;;4.95;0.90;;;;;;;;;;5010439;28;20057;-58
2023/04/02 12:14:51;;;;;;;5.93;0.98;;;;;;;;;;5019359;28;20063;-57
2023/04/02 12:17:27;;;;;;;3.08;0.63;;;;;;;;;;5010542;28;20725;-57
2023/04/02 12:19:55;;;;;;;2.85;0.82;;;;;;;;;;5019753;28;20116;-57
2023/04/02 12:22:23;;;;;;;7.63;1.63;;;;;;;;;;5024891;28;20056;-57
2023/04/02 12:24:49;;;;;;;3.10;0.70;;;;;;;;;;5024923;28;20558;-57
2023/04/02 12:27:21;;;;;;;4.28;0.90;;;;;;;;;;5024532;28;20549;-57
2023/04/02 12:29:47;;;;;;;7.75;0.85;;;;;;;;;;5024706;28;20045;-57
2023/04/02 12:32:20;;;;;;;2.38;1.17;;;;;;;;;;5024546;28;20391;-57
2023/04/02 12:34:47;;;;;;;6.47;0.85;;;;;;;;;;5024220;28;20550;-57
2023/04/02 12:37:19;;;;;;;2.90;0.75;;;;;;;;;;5024891;28;20033;-57
2023/04/02 12:39:51;;;;;;;4.00;0.90;;;;;;;;;;5024748;28;20462;-57
2023/04/02 12:42:26;;;;;;;3.30;1.10;;;;;;;;;;5023388;28;20480;-57
2023/04/02 12:44:52;;;;;;;5.53;0.90;;;;;;;;;;5012016;28;20080;-57
2023/04/02 12:47:18;;;;;;;1.75;0.60;;;;;;;;;;5024423;28;20491;-57
2023/04/02 12:49:45;;;;;;;9.15;0.65;;;;;;;;;;5023979;28;20556;-57
2023/04/02 12:52:13;;;;;;;3.83;0.77;;;;;;;;;;5024248;28;20045;-57
2023/04/02 12:54:47;;;;;;;3.10;0.90;;;;;;;;;;5024698;28;20074;-59
2023/04/02 12:57:30;;;;;;;3.33;0.63;;;;;;;;;;5024683;28;20046;-59
2023/04/02 12:59:58;;;;;;;6.35;2.60;;;;;;;;;;5021672;28;20038;-59
2023/04/02 13:02:26;;;;;;;5.18;0.80;;;;;;;;;;5019197;28;20057;-58
2023/04/02 13:04:54;;;;;;;4.63;0.63;;;;;;;;;;5014954;28;20100;-58
2023/04/02 13:07:24;;;;;;;4.83;1.10;;;;;;;;;;5015749;28;20076;-58
2023/04/02 13:09:51;;;;;;;3.28;1.83;;;;;;;;;;5017300;28;20113;-59
2023/04/02 13:12:25;;;;;;;2.35;1.00;;;;;;;;;;5014128;28;20046;-58
2023/04/02 13:14:52;;;;;;;2.50;1.20;;;;;;;;;;5016338;28;20045;-59
2023/04/02 13:17:37;;;;;;;3.70;1.33;;;;;;;;;;5025748;28;20495;-59
2023/04/02 13:20:22;;;;;;;3.00;0.88;;;;;;;;;;5019328;28;20045;-59
2023/04/02 13:22:48;;;;;;;3.95;2.20;;;;;;;;;;5020117;28;20564;-59
2023/04/02 13:25:14;;;;;;;6.82;2.97;;;;;;;;;;5019480;28;21538;-59
2023/04/02 13:27:41;;;;;;;5.88;1.48;;;;;;;;;;5026960;28;20049;-59
2023/04/02 13:30:09;;;;;;;5.03;1.20;;;;;;;;;;5028471;28;20098;-59
2023/04/02 13:32:36;;;;;;;4.00;0.57;;;;;;;;;;5026470;28;20045;-59
2023/04/02 13:35:03;;;;;;;3.92;1.05;;;;;;;;;;5021886;28;20050;-60
2023/04/02 13:37:29;;;;;;;2.83;1.38;;;;;;;;;;5025844;28;20041;-60
2023/04/02 13:39:55;;;;;;;5.18;0.90;;;;;;;;;;5019331;28;20519;-61
2023/04/02 13:42:21;;;;;;;2.42;0.85;;;;;;;;;;5026059;28;20041;-59
2023/04/02 13:44:48;;;;;;;3.58;0.85;;;;;;;;;;5011869;28;20455;-59
2023/04/02 13:47:14;;;;;;;6.28;4.43;;;;;;;;;;5021208;28;20515;-59
2023/04/02 13:49:40;;;;;;;4.10;1.40;;;;;;;;;;5022771;28;20106;-60
2023/04/02 13:52:10;;;;;;;4.20;0.35;;;;;;;;;;5019561;28;20053;-59
2023/04/02 13:54:47;;;;;;;1.90;1.20;;;;;;;;;;5017599;28;20045;-59
2023/04/02 13:57:14;;;;;;;1.70;0.77;;;;;;;;;;5032791;28;20053;-59
2023/04/02 13:59:40;;;;;;;4.40;0.88;;;;;;;;;;5019154;28;20042;-60
2023/04/02 14:02:13;;;;;;;4.25;0.70;;;;;;;;;;5020997;28;20496;-59
2023/04/02 14:04:42;;;;;;;3.08;0.50;;;;;;;;;;5017391;28;20103;-59
2023/04/02 14:07:08;;;;;;;;;;;;;;;;;;5014004;28;20543;-59
2023/04/02 14:09:49;;;;;;;4.80;1.08;;;;;;;;;;5018040;28;20017;-59
2023/04/02 14:12:23;;;;;;;3.75;0.60;;;;;;;;;;5021267;28;20277;-60
2023/04/02 14:14:59;;;;;;;7.07;0.52;;;;;;;;;;5021258;28;20068;-59
2023/04/02 14:17:32;;;;;;;49.13;3.08;;;;;;;;;;5013607;28;20116;-62
2023/04/02 14:20:04;;;;;;;2.80;1.52;;;;;;;;;;5012664;28;20046;-60
2023/04/02 14:22:48;;;;;;;4.47;0.70;;;;;;;;;;5011982;28;20045;-59
2023/04/02 14:25:20;;;;;;;9.88;0.73;;;;;;;;;;5015553;28;20548;-59
2023/04/02 14:27:51;;;;;;;1.85;0.40;;;;;;;;;;5026143;28;20480;-59
2023/04/02 14:30:23;;;;;;;4.18;0.50;;;;;;;;;;5027393;28;20049;-59
2023/04/02 14:33:00;;;;;;;1.75;0.63;;;;;;;;;;5026750;28;20090;-60
2023/04/02 14:35:42;;;;;;;1.40;0.40;;;;;;;;;;5026401;28;20049;-59
2023/04/02 14:38:26;;;;;;;3.40;0.60;;;;;;;;;;5014457;28;20526;-60
2023/04/02 14:40:56;;;;;;;5.22;0.50;;;;;;;;;;5025983;28;20045;-60
2023/04/02 14:43:28;;;;;;;6.30;1.50;;;;;;;;;;5010660;28;20053;-59
2023/04/02 14:46:00;;;;;;;2.40;0.70;;;;;;;;;;5013876;28;20041;-59
2023/04/02 14:48:46;;;;;;;1.35;0.40;;;;;;;;;;5010300;28;20042;-60
2023/04/02 14:51:21;;;;;;;3.53;0.47;;;;;;;;;;5012706;28;20487;-59
2023/04/02 14:53:58;;;;;;;2.70;0.50;;;;;;;;;;5010867;28;20081;-59
2023/04/02 14:56:25;;;;;;;5.32;0.60;;;;;;;;;;5012857;28;20033;-59
2023/04/02 14:58:56;;;;;;;4.53;0.68;;;;;;;;;;5011231;28;20090;-60
2023/04/02 15:01:26;;;;;;;4.70;0.73;;;;;;;;;;5014384;28;20073;-59
2023/04/02 15:03:57;;;;;;;2.50;0.60;;;;;;;;;;5013068;28;20509;-60